Data Trawler - Survey Details

NCMI Information and Data Centre  »  Applications  »  Data Trawler
Please login if you have access to particular applications.
Username: Password:

Survey details and related metadata, reports, events and data.

SO 1/88

Period: 1988-01-20 to 1988-02-11

Region: SA, Victorian waters

Ship: Soela [details]

Description: Soela cruise SO 1/88 was undertaken to carry out the first stage of depth-stratified random trawl survey for orange roughy in southeast Australian waters between Kangaroo Island, South Australia (137 degrees E), and Portland, Victoria (141 degrees 30'E). Cruise aims included to conduct the trawl survey for orange roughy between the 700 and 1200 m depth contours; to conduct a number of random trawls within the 1200 to 1400 m depths as an adjunct to the shallower survey; to collect biological information on the orange roughy caught; to conduct temperature and salinity profiles in conjunction with the trawl survey (15 CTD sataions completed) and to determine trawlable ground within the survey area.

Leader: N. Elliott (CSIRO)

Project: Abundance, distribution, movements and population dynamics of orange roughy in southeast Australian waters (FIRTA project no. 87/129) 1987-1990 [details]


Voyage extents: 38° 39.0' S to 36° 53.0' S    137° 12.0' E to 141° 04.0' E


Marlin Metadata:-

  • Soela Voyage SO 1/88 Biological Data Overview [details]

  • Participants:- no records

    MNF Reports

    Search for publications and reports from this and other voyages

    Data publishing:- This is a list of online datasets. use the Get data link on the right to extract data using the NCMI Data Trawler.

    Data StreamData SummaryGet data
    Catch Details
    Time (UTC): 1988-01-23 13:01 to 1988-02-10 03:02
    Latitude: -38.65 to -36.88
    Longitude: 137.20 to 141.07
    Catch Summary:Deployments: 78
    Catch Composition: 952
    Measurements: 1073
    Specimens: 0
    Get Data from Trawler

    Deployments by start time:- Click on column header to sort

    Deployment OperationProject Start and end timesStart LocationEnd LocationDepthDescription
    Catch [details] 2 533 1988-01-23 13:00 1988-01-23 13:42 -36.8833 137.2000 -36.9000 137.2000 1165 Trawling
    Catch [details] 3 533 1988-01-24 13:00 1988-01-24 13:42 -36.9167 137.2833 1050 Trawling
    Catch [details] 4 533 1988-01-24 00:26 1988-01-24 01:16 -36.9333 137.3500 -36.9500 137.3833 950 Trawling
    Catch [details] 6 533 1988-01-24 13:00 1988-01-24 13:48 -36.9167 137.3833 -36.9333 137.4167 720 Trawling
    Catch [details] 7 533 1988-01-24 13:00 1988-01-24 13:48 -36.9500 137.4167 850 Trawling
    Catch [details] 8 533 1988-01-24 13:00 1988-01-24 13:43 -36.9667 137.4167 1010 Trawling
    Catch [details] 9 533 1988-01-25 13:00 1988-01-25 13:55 -37.0000 137.4000 -37.0167 137.4333 1160 Trawling
    Catch [details] 11 533 1988-01-25 04:20 1988-01-25 04:57 -37.1833 138.0833 -37.2000 138.1000 1070 Trawling
    Catch [details] 12 533 1988-01-25 09:40 1988-01-25 10:30 -37.2667 138.2333 960 Trawling
    Catch [details] 14 533 1988-01-26 13:00 1988-01-26 13:42 -37.2333 138.2167 -37.2167 138.1833 970 Trawling
    Catch [details] 15 533 1988-01-25 20:06 1988-01-25 20:56 -37.2667 138.2167 1050 Trawling
    Catch [details] 16 533 1988-01-26 00:20 1988-01-26 01:12 -37.2333 138.3000 -37.2167 138.2667 920 Trawling
    Catch [details] 17 533 1988-01-26 07:42 1988-01-26 08:34 -37.3000 138.5167 940 Trawling
    Catch [details] 18 533 1988-01-26 11:48 1988-01-26 12:38 -37.1833 138.3667 -37.2000 138.4000 750 Trawling
    Catch [details] 19 533 1988-01-27 14:10 1988-01-27 15:03 -37.2000 138.4333 -37.2167 138.4667 720 Trawling
    Catch [details] 20 533 1988-01-26 17:20 1988-01-26 18:52 -37.2500 138.5667 -37.3000 138.5000 900 Trawling
    Catch [details] 21 533 1988-01-26 21:17 1988-01-26 22:10 -37.2333 138.6500 -37.2500 138.6000 760 Trawling
    Catch [details] 22 533 1988-01-27 02:23 1988-01-27 03:16 -37.2833 138.6833 830 Trawling
    Catch [details] 24 533 1988-01-27 06:30 1988-01-27 07:20 -37.3167 138.5167 1000 Trawling
    Catch [details] 25 533 1988-01-27 10:23 1988-01-27 11:26 -37.3000 138.6500 -37.2833 138.6167 840 Trawling
    Catch [details] 26 533 1988-01-27 15:15 1988-01-27 16:05 -37.3667 138.4833 -37.3833 138.5000 1350 Trawling
    Catch [details] 27 533 1988-01-27 19:17 1988-01-27 20:04 -37.3000 138.6000 -37.2833 138.5833 1060 Trawling
    Catch [details] 28 533 1988-01-27 22:50 1988-01-27 23:40 -37.3167 138.6500 -37.3333 138.6333 950 Trawling
    Catch [details] 30 533 1988-01-28 04:17 1988-01-28 05:12 -37.3333 138.6667 -37.3500 138.6333 1040 Trawling
    Catch [details] 31 533 1988-01-28 07:42 1988-01-28 08:32 -37.3333 138.7000 910 Trawling
    Catch [details] 32 533 1988-01-28 11:30 1988-01-28 12:28 -37.2667 138.7000 -37.2833 138.6667 830 Trawling
    Catch [details] 33 533 1988-01-28 22:23 1988-01-28 23:13 -37.3500 138.7500 1080 Trawling
    Catch [details] 35 533 1988-01-29 03:07 1988-01-29 03:57 -37.4000 138.7000 -37.4167 138.6667 1200 Trawling
    Catch [details] 36 533 1988-01-29 08:46 1988-01-29 09:36 -37.3333 138.7667 -37.3167 138.8000 930 Trawling
    Catch [details] 37 533 1988-01-29 10:40 1988-01-29 11:30 -37.2500 138.7833 720 Trawling
    Catch [details] 38 533 1988-01-30 13:33 1988-01-30 14:23 -37.2833 138.7833 840 Trawling
    Catch [details] 39 533 1988-01-29 16:37 1988-01-29 17:14 -37.2833 138.8833 -37.2333 138.8833 780 Trawling
    Catch [details] 40 533 1988-01-29 20:10 1988-01-29 21:00 -37.3333 138.8333 950 Trawling
    Catch [details] 42 533 1988-01-30 01:07 1988-01-30 01:57 -37.4000 138.8500 -37.3833 138.8833 1150 Trawling
    Catch [details] 43 533 1988-01-30 04:35 1988-01-30 05:25 -37.3833 138.9167 -37.3667 138.8667 1050 Trawling
    Catch [details] 45 533 1988-01-30 11:49 1988-01-30 12:42 -37.3667 138.9333 -37.3833 138.9500 860 Trawling
    Catch [details] 47 533 1988-01-31 05:05 1988-01-31 05:53 -37.5833 139.0333 -37.5667 139.0167 900 Trawling
    Catch [details] 48 533 1988-01-31 09:32 1988-01-31 10:22 -37.6167 139.0000 -37.6333 139.0167 1070 Trawling
    Catch [details] 49 533 1988-02-01 13:36 1988-02-01 14:21 -37.6000 139.0167 -37.6167 139.0333 1010 Trawling
    Catch [details] 50 533 1988-01-31 17:49 1988-01-31 18:37 -37.5667 138.9333 -37.5833 138.9500 1230 Trawling
    Catch [details] 51 533 1988-01-31 22:30 1988-01-31 23:20 -37.5833 139.1167 -37.5500 139.0667 720 Trawling
    Catch [details] 53 533 1988-02-01 02:52 1988-02-01 03:42 -37.5667 139.0667 -37.6000 139.0833 820 Trawling
    Catch [details] 54 533 1988-02-01 05:58 1988-02-01 06:50 -37.5833 139.0333 -37.6000 139.0500 900 Trawling
    Catch [details] 55 533 1988-02-01 10:00 1988-02-01 10:50 -37.6833 139.1167 1110 Trawling
    Catch [details] 58 533 1988-02-02 01:18 1988-02-02 02:18 -37.7833 139.4833 -37.8000 139.5167 1030 Trawling
    Catch [details] 59 533 1988-02-02 04:28 1988-02-02 05:21 -37.7667 139.4833 930 Trawling
    Catch [details] 60 533 1988-02-02 07:09 1988-02-02 07:59 -37.7500 139.5000 840 Trawling
    Catch [details] 61 533 1988-02-02 11:56 1988-02-02 12:46 -37.7833 139.4333 -37.8000 139.4500 1120 Trawling
    Catch [details] 63 533 1988-02-02 17:14 1988-02-02 18:06 -37.8000 139.6000 -37.7833 139.5833 820 Trawling
    Catch [details] 64 533 1988-02-02 20:25 1988-02-02 21:15 -37.8167 139.6500 -37.8000 139.6167 710 Trawling
    Catch [details] 65 533 1988-02-02 23:24 1988-02-03 00:14 -37.8500 139.5667 -37.8833 139.6000 1100 Trawling
    Catch [details] 67 533 1988-02-03 03:40 1988-02-03 04:30 -37.8667 139.6500 -37.8500 139.6167 1050 Trawling
    Catch [details] 68 533 1988-02-03 08:15 1988-02-03 09:05 -37.8500 139.5500 -37.8833 139.5667 1210 Trawling
    Catch [details] 69 533 1988-02-04 14:10 1988-02-04 14:58 -38.0667 139.9500 -38.0333 139.9167 1120 Trawling
    Catch [details] 70 533 1988-02-03 18:15 1988-02-03 19:03 -38.1000 140.0000 -38.0667 139.9667 1150 Trawling
    Catch [details] 71 533 1988-02-04 01:40 1988-02-04 02:43 -38.0833 140.0667 -38.0500 140.0333 750 Trawling
    Catch [details] 72 533 1988-02-04 05:55 1988-02-04 06:45 -38.1667 140.2000 -38.1833 140.2333 710 Trawling
    Catch [details] 75 533 1988-02-04 16:57 1988-02-04 17:52 -38.2833 140.3500 -38.2667 140.3167 1040 Trawling
    Catch [details] 76 533 1988-02-04 20:46 1988-02-04 21:43 -38.3167 140.3833 -38.3000 140.3667 1130 Trawling
    Catch [details] 77 533 1988-02-05 01:30 1988-02-05 02:20 -38.3167 140.3333 -38.3000 140.3000 1240 Trawling
    Catch [details] 79 533 1988-02-06 18:43 1988-02-06 19:36 -38.3333 140.4333 -38.3167 140.4000 1000 Trawling
    Catch [details] 80 533 1988-02-06 23:38 1988-02-07 00:35 -38.3833 140.5667 -38.3667 140.5333 750 Trawling
    Catch [details] 81 533 1988-02-07 05:03 1988-02-07 05:53 -38.4000 140.4667 -38.3833 140.4500 1200 Trawling
    Catch [details] 82 533 1988-02-07 12:33 1988-02-07 13:28 -38.5833 140.9833 930 Trawling
    Catch [details] 83 533 1988-02-07 15:57 1988-02-07 16:47 -38.6000 140.9667 1110 Trawling
    Catch [details] 85 533 1988-02-07 20:30 1988-02-07 21:20 -38.5833 141.0167 820 Trawling
    Catch [details] 86 533 1988-02-08 01:28 1988-02-08 02:20 -38.6167 141.0000 -38.6333 141.0167 1110 Trawling
    Catch [details] 87 533 1988-02-08 04:42 1988-02-08 05:45 -38.6500 141.0333 -38.6333 140.9833 1270 Trawling
    Catch [details] 88 533 1988-02-09 03:01 1988-02-09 04:19 -38.6167 141.0667 950 Trawling
    Catch [details] 89 533 1988-02-09 06:38 1988-02-09 07:40 -38.6167 141.0333 -38.6333 141.0833 1100 Trawling
    Catch [details] 90 533 1988-02-09 10:19 1988-02-09 11:12 -38.6167 141.0167 -38.6333 141.0500 1110 Trawling
    Catch [details] 93 533 1988-02-09 19:56 1988-02-09 20:48 -38.5833 140.9667 -38.5667 140.9167 920 Trawling
    Catch [details] 94 533 1988-02-09 23:30 1988-02-10 00:23 -38.5000 140.7500 -38.5167 140.7667 950 Trawling
    Catch [details] 95 533 1988-02-10 03:01 1988-02-10 03:58 -38.5000 140.7167 -38.5167 140.7500 1040 Trawling
    Catch [details] 96 533 1988-02-10 03:00 -38.5667 140.9167
    Catch Failed [details] 10 533 1988-01-24 16:50 -37.0167 137.3833 1550
    Catch Failed [details] 73 533 1988-02-04 09:25 -38.1833 140.1667 1050
    Catch Failed [details] 92 533 1988-02-09 17:39 -38.5667 140.9167 950

    NCMI Information and Data Centre  »  Data Trawler